CL Belgium — VRVQ9 — position and weather

sailwx.info

Track history (hours):
 
Tides and Currents Weather Stations Pressure Air Temp Water Temp Dewpoint Dewpoint Depression Visibility Wind Speed Wind Dir Waves Ship Positions

CL Belgium

Last reported at 2018-Jun-21 22:01 UTC. Time now 2018-Jun-21 22:08 UTC.
Position N 52°28' E 003°41'.

Length 245 m; beam 32.2 m; draft 10.8 m.

Type: Ship (hazmat cat A). MMSI: 477616000.

Date/timePositionNaut miles runAvg speedWind from/ knotsBaromVisibWave heightAir tempDewpointWater temp
2018-Jun-21 22:01N 52°28' E 003°41'918.3
2018-Jun-21 21:30N 52°19' E 003°37'918.6
2018-Jun-21 21:00N 52°10' E 003°32'918.4
2018-Jun-21 20:30N 52°02' E 003°26'918.4
2018-Jun-21 19:59N 51°53' E 003°22'917.9
2018-Jun-21 19:30N 51°45' E 003°16'713.4
2018-Jun-21 19:00N 51°38' E 003°12'612.9
2018-Jun-21 18:30N 51°32' E 003°08'713.4
2018-Jun-21 18:00N 51°28' E 003°01'510.0
2018-Jun-21 17:30N 51°24' E 003°07'613.3
2018-Jun-21 17:00N 51°25' E 003°17'713.1
2018-Jun-21 16:30N 51°25' E 003°28'713.1
2018-Jun-21 16:00N 51°26' E 003°38'611.2
2018-Jun-21 15:30N 51°22' E 003°44'510.3
2018-Jun-21 15:00N 51°21' E 003°52'510.2
2018-Jun-21 14:30N 51°25' E 003°58'4 7.5
2018-Jun-21 14:00N 51°23' E 004°03'612.6
2018-Jun-21 13:30N 51°23' E 004°13'510.1
2018-Jun-21 13:00N 51°19' E 004°16'1 2.5
2018-Jun-21 12:30N 51°18' E 004°16'0 0.0
2018-Jun-21 12:00N 51°18' E 004°16'0 0.0
2018-Jun-21 11:30N 51°18' E 004°16'0 0.0
2018-Jun-21 11:00N 51°18' E 004°16'0 0.0
2018-Jun-21 10:30N 51°18' E 004°16'0 0.0
2018-Jun-21 10:00N 51°18' E 004°16'0 0.0
2018-Jun-21 09:30N 51°18' E 004°16'0 0.0
2018-Jun-21 09:00N 51°18' E 004°16'0 0.0
2018-Jun-21 08:30N 51°18' E 004°16'0 0.0
2018-Jun-21 08:00N 51°18' E 004°16'0 0.0
2018-Jun-21 07:30N 51°18' E 004°16'0 0.0
2018-Jun-21 07:00N 51°18' E 004°16'0 0.0
2018-Jun-21 06:30N 51°18' E 004°16'0 0.0
2018-Jun-21 06:00N 51°18' E 004°16'0 0.0
2018-Jun-21 05:30N 51°18' E 004°16'0 0.0
2018-Jun-21 05:00N 51°18' E 004°16'0 0.0
2018-Jun-21 04:30N 51°18' E 004°16'0 0.0
2018-Jun-21 04:00N 51°18' E 004°16'0 0.0
2018-Jun-21 03:30N 51°18' E 004°16'0 0.0
2018-Jun-21 03:00N 51°18' E 004°16'0 0.0
2018-Jun-21 02:30N 51°18' E 004°16'0 0.0
2018-Jun-21 02:00N 51°18' E 004°16'0 0.0
2018-Jun-21 01:30N 51°18' E 004°16'0 0.1
2018-Jun-21 01:00N 51°18' E 004°16'1 1.8
2018-Jun-21 00:30N 51°18' E 004°16'2 3.8
2018-Jun-21 00:00N 51°20' E 004°16'2 4.9
2018-Jun-20 23:30N 51°22' E 004°13'2 4.4
2018-Jun-20 23:00N 51°24' E 004°12'4 8.0
2018-Jun-20 22:30N 51°22' E 004°06'510.0
2018-Jun-20 22:00N 51°26' E 004°01'510.3
2018-Jun-20 21:30N 51°22' E 003°55'611.4
2018-Jun-20 21:00N 51°22' E 003°46'612.0
2018-Jun-20 20:30N 51°26' E 003°40'510.3
2018-Jun-20 20:00N 51°25' E 003°32'612.6
2018-Jun-20 19:31N 51°24' E 003°22'917.2
2018-Jun-20 19:00N 51°24' E 003°08'917.7
2018-Jun-20 18:30N 51°25' E 002°54'715.1
2018-Jun-20 18:01N 51°22' E 002°43'5 9.8
2018-Jun-20 17:30N 51°22' E 002°35'613.0
2018-Jun-20 17:00N 51°21' E 002°25'612.5
2018-Jun-20 16:30N 51°17' E 002°17'4 7.2
2018-Jun-20 16:00N 51°15' E 002°12'3 6.5
2018-Jun-20 15:30N 51°14' E 002°07'3 6.2
2018-Jun-20 15:00N 51°12' E 002°03'3 5.2
2018-Jun-20 14:30N 51°11' E 001°59'2 4.7
2018-Jun-20 14:00N 51°10' E 001°56'2 4.2
2018-Jun-20 13:30N 51°09' E 001°53'2 3.9
2018-Jun-20 13:00N 51°08' E 001°51'2 3.7
2018-Jun-20 12:30N 51°07' E 001°48'2 3.6
2018-Jun-20 12:00N 51°06' E 001°46'2 3.7
2018-Jun-20 11:30N 51°04' E 001°44'2 4.3
2018-Jun-20 11:00N 51°03' E 001°42'2 4.4
2018-Jun-20 10:30N 51°01' E 001°40'2 4.8
2018-Jun-20 10:00N 50°59' E 001°37'2 5.0
2018-Jun-20 09:30N 50°57' E 001°35'3 5.8
2018-Jun-20 09:00N 50°55' E 001°31'3 5.9
2018-Jun-20 08:30N 50°52' E 001°29'3 6.5
2018-Jun-20 08:00N 50°49' E 001°28'3 7.0
2018-Jun-20 07:30N 50°46' E 001°26'510.5
2018-Jun-20 07:00N 50°42' E 001°20'713.2
2018-Jun-20 06:30N 50°37' E 001°14'713.3
2018-Jun-20 06:00N 50°33' E 001°06'713.3
2018-Jun-20 05:30N 50°30' E 000°56'713.2
2018-Jun-20 05:00N 50°28' E 000°47'713.3
2018-Jun-20 04:28N 50°26' E 000°36'613.5
2018-Jun-20 04:00N 50°24' E 000°26'713.8
2018-Jun-20 03:30N 50°22' E 000°16'714.2
2018-Jun-20 03:00N 50°20' E 000°05'1014.6
2018-Jun-20 02:18N 50°17' W 000°10'415.0
2018-Jun-20 02:00N 50°16' W 000°17'915.4
2018-Jun-20 01:26N 50°13' W 000°30'815.6
2018-Jun-20 00:54N 50°11' W 000°42'715.8
2018-Jun-20 00:28N 50°09' W 000°52'715.8
2018-Jun-20 00:01N 50°07' W 001°03'815.6
2018-Jun-19 23:29N 50°05' W 001°16'715.2
2018-Jun-19 23:00N 50°03' W 001°27'714.8
2018-Jun-19 22:31N 50°02' W 001°38'1313.9
2018-Jun-19 21:36N 49°58' W 001°57'313.1
2018-Jun-19 21:20N 49°58' W 002°02'512.7
2018-Jun-19 20:57N 49°56' W 002°09'612.1
2018-Jun-19 20:29N 49°54' W 002°18'611.5
2018-Jun-19 19:59N 49°53' W 002°26'611.3
2018-Jun-19 19:26N 49°51' W 002°36'511.3
2018-Jun-19 19:00N 49°50' W 002°43'510.6
2018-Jun-19 18:30N 49°49' W 002°51'4 8.8
2018-Jun-19 18:00N 49°48' W 002°58'4 9.1
2018-Jun-19 17:30N 49°48' W 003°05'4 9.1
2018-Jun-19 17:00N 49°48' W 003°12'5 9.4
2018-Jun-19 16:30N 49°47' W 003°19'5 9.8
2018-Jun-19 15:59N 49°47' W 003°27'5 9.9
2018-Jun-19 15:30N 49°47' W 003°34'610.1
2018-Jun-19 14:57N 49°46' W 003°43'510.4
2018-Jun-19 14:30N 49°46' W 003°50'1110.6
2018-Jun-19 13:28N 49°45' W 004°07'910.9
2018-Jun-19 12:41N 49°44' W 004°20'411.1
2018-Jun-19 12:17N 49°44' W 004°27'311.4
2018-Jun-19 11:59N 49°43' W 004°33'611.5
2018-Jun-19 11:27N 49°43' W 004°42'17 9.5
2018-Jun-19 09:41N 49°41' W 005°08'7 8.7
2018-Jun-19 08:52N 49°41' W 005°19'4 8.6
2018-Jun-19 08:27N 49°41' W 005°24'10 8.2
2018-Jun-19 07:16N 49°40' W 005°39'  
Track history (hours):
 
Tides and Currents Weather Stations Pressure Air Temp Water Temp Dewpoint Dewpoint Depression Visibility Wind Speed Wind Dir Waves Ship Positions

CL Belgium

Last reported at 2018-Jun-21 22:01 UTC. Time now 2018-Jun-21 22:08 UTC.
Position N 52°28' E 003°41'.

Length 245 m; beam 32.2 m; draft 10.8 m.

Type: Ship (hazmat cat A). MMSI: 477616000.

Date/timePositionNaut miles runAvg speedWind from/ knotsBaromVisibWave heightAir tempDewpointWater temp
2018-Jun-21 22:01N 52°28' E 003°41'918.3
2018-Jun-21 21:30N 52°19' E 003°37'918.6
2018-Jun-21 21:00N 52°10' E 003°32'918.4
2018-Jun-21 20:30N 52°02' E 003°26'918.4
2018-Jun-21 19:59N 51°53' E 003°22'917.9
2018-Jun-21 19:30N 51°45' E 003°16'713.4
2018-Jun-21 19:00N 51°38' E 003°12'612.9
2018-Jun-21 18:30N 51°32' E 003°08'713.4
2018-Jun-21 18:00N 51°28' E 003°01'510.0
2018-Jun-21 17:30N 51°24' E 003°07'613.3
2018-Jun-21 17:00N 51°25' E 003°17'713.1
2018-Jun-21 16:30N 51°25' E 003°28'713.1
2018-Jun-21 16:00N 51°26' E 003°38'611.2
2018-Jun-21 15:30N 51°22' E 003°44'510.3
2018-Jun-21 15:00N 51°21' E 003°52'510.2
2018-Jun-21 14:30N 51°25' E 003°58'4 7.5
2018-Jun-21 14:00N 51°23' E 004°03'612.6
2018-Jun-21 13:30N 51°23' E 004°13'510.1
2018-Jun-21 13:00N 51°19' E 004°16'1 2.5
2018-Jun-21 12:30N 51°18' E 004°16'0 0.0
2018-Jun-21 12:00N 51°18' E 004°16'0 0.0
2018-Jun-21 11:30N 51°18' E 004°16'0 0.0
2018-Jun-21 11:00N 51°18' E 004°16'0 0.0
2018-Jun-21 10:30N 51°18' E 004°16'0 0.0
2018-Jun-21 10:00N 51°18' E 004°16'0 0.0
2018-Jun-21 09:30N 51°18' E 004°16'0 0.0
2018-Jun-21 09:00N 51°18' E 004°16'0 0.0
2018-Jun-21 08:30N 51°18' E 004°16'0 0.0
2018-Jun-21 08:00N 51°18' E 004°16'0 0.0
2018-Jun-21 07:30N 51°18' E 004°16'0 0.0
2018-Jun-21 07:00N 51°18' E 004°16'0 0.0
2018-Jun-21 06:30N 51°18' E 004°16'0 0.0
2018-Jun-21 06:00N 51°18' E 004°16'0 0.0
2018-Jun-21 05:30N 51°18' E 004°16'0 0.0
2018-Jun-21 05:00N 51°18' E 004°16'0 0.0
2018-Jun-21 04:30N 51°18' E 004°16'0 0.0
2018-Jun-21 04:00N 51°18' E 004°16'0 0.0
2018-Jun-21 03:30N 51°18' E 004°16'0 0.0
2018-Jun-21 03:00N 51°18' E 004°16'0 0.0
2018-Jun-21 02:30N 51°18' E 004°16'0 0.0
2018-Jun-21 02:00N 51°18' E 004°16'0 0.0
2018-Jun-21 01:30N 51°18' E 004°16'0 0.1
2018-Jun-21 01:00N 51°18' E 004°16'1 1.8
2018-Jun-21 00:30N 51°18' E 004°16'2 3.8
2018-Jun-21 00:00N 51°20' E 004°16'2 4.9
2018-Jun-20 23:30N 51°22' E 004°13'2 4.4
2018-Jun-20 23:00N 51°24' E 004°12'4 8.0
2018-Jun-20 22:30N 51°22' E 004°06'510.0
2018-Jun-20 22:00N 51°26' E 004°01'510.3
2018-Jun-20 21:30N 51°22' E 003°55'611.4
2018-Jun-20 21:00N 51°22' E 003°46'612.0
2018-Jun-20 20:30N 51°26' E 003°40'510.3
2018-Jun-20 20:00N 51°25' E 003°32'612.6
2018-Jun-20 19:31N 51°24' E 003°22'917.2
2018-Jun-20 19:00N 51°24' E 003°08'917.7
2018-Jun-20 18:30N 51°25' E 002°54'715.1
2018-Jun-20 18:01N 51°22' E 002°43'5 9.8
2018-Jun-20 17:30N 51°22' E 002°35'613.0
2018-Jun-20 17:00N 51°21' E 002°25'612.5
2018-Jun-20 16:30N 51°17' E 002°17'4 7.2
2018-Jun-20 16:00N 51°15' E 002°12'3 6.5
2018-Jun-20 15:30N 51°14' E 002°07'3 6.2
2018-Jun-20 15:00N 51°12' E 002°03'3 5.2
2018-Jun-20 14:30N 51°11' E 001°59'2 4.7
2018-Jun-20 14:00N 51°10' E 001°56'2 4.2
2018-Jun-20 13:30N 51°09' E 001°53'2 3.9
2018-Jun-20 13:00N 51°08' E 001°51'2 3.7
2018-Jun-20 12:30N 51°07' E 001°48'2 3.6
2018-Jun-20 12:00N 51°06' E 001°46'2 3.7
2018-Jun-20 11:30N 51°04' E 001°44'2 4.3
2018-Jun-20 11:00N 51°03' E 001°42'2 4.4
2018-Jun-20 10:30N 51°01' E 001°40'2 4.8
2018-Jun-20 10:00N 50°59' E 001°37'2 5.0
2018-Jun-20 09:30N 50°57' E 001°35'3 5.8
2018-Jun-20 09:00N 50°55' E 001°31'3 5.9
2018-Jun-20 08:30N 50°52' E 001°29'3 6.5
2018-Jun-20 08:00N 50°49' E 001°28'3 7.0
2018-Jun-20 07:30N 50°46' E 001°26'510.5
2018-Jun-20 07:00N 50°42' E 001°20'713.2
2018-Jun-20 06:30N 50°37' E 001°14'713.3
2018-Jun-20 06:00N 50°33' E 001°06'713.3
2018-Jun-20 05:30N 50°30' E 000°56'713.2
2018-Jun-20 05:00N 50°28' E 000°47'713.3
2018-Jun-20 04:28N 50°26' E 000°36'613.5
2018-Jun-20 04:00N 50°24' E 000°26'713.8
2018-Jun-20 03:30N 50°22' E 000°16'714.2
2018-Jun-20 03:00N 50°20' E 000°05'1014.6
2018-Jun-20 02:18N 50°17' W 000°10'415.0
2018-Jun-20 02:00N 50°16' W 000°17'915.4
2018-Jun-20 01:26N 50°13' W 000°30'815.6
2018-Jun-20 00:54N 50°11' W 000°42'715.8
2018-Jun-20 00:28N 50°09' W 000°52'715.8
2018-Jun-20 00:01N 50°07' W 001°03'815.6
2018-Jun-19 23:29N 50°05' W 001°16'715.2
2018-Jun-19 23:00N 50°03' W 001°27'714.8
2018-Jun-19 22:31N 50°02' W 001°38'1313.9
2018-Jun-19 21:36N 49°58' W 001°57'313.1
2018-Jun-19 21:20N 49°58' W 002°02'512.7
2018-Jun-19 20:57N 49°56' W 002°09'612.1
2018-Jun-19 20:29N 49°54' W 002°18'611.5
2018-Jun-19 19:59N 49°53' W 002°26'611.3
2018-Jun-19 19:26N 49°51' W 002°36'511.3
2018-Jun-19 19:00N 49°50' W 002°43'510.6
2018-Jun-19 18:30N 49°49' W 002°51'4 8.8
2018-Jun-19 18:00N 49°48' W 002°58'4 9.1
2018-Jun-19 17:30N 49°48' W 003°05'4 9.1
2018-Jun-19 17:00N 49°48' W 003°12'5 9.4
2018-Jun-19 16:30N 49°47' W 003°19'5 9.8
2018-Jun-19 15:59N 49°47' W 003°27'5 9.9
2018-Jun-19 15:30N 49°47' W 003°34'610.1
2018-Jun-19 14:57N 49°46' W 003°43'510.4
2018-Jun-19 14:30N 49°46' W 003°50'1110.6
2018-Jun-19 13:28N 49°45' W 004°07'910.9
2018-Jun-19 12:41N 49°44' W 004°20'411.1
2018-Jun-19 12:17N 49°44' W 004°27'311.4
2018-Jun-19 11:59N 49°43' W 004°33'611.5
2018-Jun-19 11:27N 49°43' W 004°42'17 9.5
2018-Jun-19 09:41N 49°41' W 005°08'7 8.7
2018-Jun-19 08:52N 49°41' W 005°19'4 8.6
2018-Jun-19 08:27N 49°41' W 005°24'10 8.2
2018-Jun-19 07:16N 49°40' W 005°39'  

Dump ship's entire track history